Terminal Aerodrome Forecast
Issued by NWS

Home | Current Version | Previous Version | Text Only | Print | Product List | Glossary On
Versions: 1 2 3 4 5 6 7 8 9 10 11 12 13 14 15 16 17 18 19 20 21 22 23 24 25 26 27 28
960
FTUS43 KLOT 202321
TAFORD
TAF
KORD 202321Z 2100/2206 19011KT P6SM BKN300
     FM210500 19005KT P6SM BKN300
     FM211600 18011KT P6SM FEW250
     FM220100 17007KT P6SM SKC=

USA.gov is the U.S. government's official web portal to all federal, state and local government web resources and services.